»·PEaware :: AAL215 KBUR-KLAS

AAL215 :: KBUR-KLAS

FLIGHT INFORMATION

Flight Status: Arrived
Operator:
American Airlines
More flights by this operator :: More flights under this callsign
Pilot: Mads G. (14801)
Aircraft: BOEING 727-100
(B721)
More flights by this aircraft type
Origin: KBUR Bob Hope-Burbank
United States
Destination: KLAS McCarran Intl
United States
More flights between these airports :: More routes between these airports
Route: +VNY3 DAG CLARR3
File this flight plan on PilotEdge
Remarks:
Altitude:
(Current/Filed)
25,000ft
Speed:
(Current/Filed)
300kts
Departed: 12-Dec-18 12:53 PM
Arrived: 12-Dec-18 02:38 PM
Distance/Time
Traveled:
194nm/1:45
Distance/Time
To Go:
Arrived

Flight Plot

Page will automatically refresh every two minutes.

Flight plan parsing failed; only flown route is shown


Map Options




Map Legend


Flown Route
Filed Route
Departure Airport
Arrival Airport
Navaid (VOR, NDB)
Fix

Horizontal Profiles

Position Reports

Time Latitude Longitude Heading Altitude Ground
Speed
12-Dec-18 12:29 34.196197 -118.363838 149 789ft 0kts
12-Dec-18 12:30 34.196197 -118.363838 149 789ft 0kts
12-Dec-18 12:31 34.196197 -118.363838 149 789ft 0kts
12-Dec-18 12:32 34.196197 -118.363838 149 789ft 0kts
12-Dec-18 12:33 34.196197 -118.363838 149 789ft 0kts
12-Dec-18 12:34 34.196197 -118.363838 149 789ft 0kts
12-Dec-18 12:35 34.196197 -118.363838 149 789ft 0kts
12-Dec-18 12:36 34.196197 -118.363838 149 789ft 0kts
12-Dec-18 12:37 34.196197 -118.363838 149 789ft 0kts
12-Dec-18 12:38 34.196197 -118.363838 149 789ft 0kts
12-Dec-18 12:39 34.196197 -118.363838 149 789ft 0kts
12-Dec-18 12:40 34.196197 -118.363838 149 789ft 0kts
12-Dec-18 12:41 34.196189 -118.363679 67 789ft 3kts
12-Dec-18 12:42 34.196913 -118.364440 299 789ft 13kts
12-Dec-18 12:43 34.199099 -118.364495 30 789ft 14kts
12-Dec-18 12:44 34.198887 -118.357980 90 789ft 0kts
12-Dec-18 12:45 34.199564 -118.355574 348 789ft 26kts
12-Dec-18 12:46 34.211604 -118.359147 322 789ft 12kts
12-Dec-18 12:47 34.211643 -118.359185 321 789ft 0kts
12-Dec-18 12:48 34.211643 -118.359185 321 789ft 0kts
12-Dec-18 12:49 34.211643 -118.359185 321 789ft 0kts
12-Dec-18 12:50 34.211643 -118.359185 321 789ft 0kts
12-Dec-18 12:51 34.211650 -118.359191 321 789ft 1kts
12-Dec-18 12:52 34.206989 -118.358963 167 789ft 88kts
12-Dec-18 12:53 34.167952 -118.358994 208 2176ft 169kts
12-Dec-18 12:54 34.127694 -118.404861 225 4039ft 240kts
12-Dec-18 12:55 34.073130 -118.473741 225 5412ft 285kts
12-Dec-18 12:56 34.012812 -118.532786 192 5983ft 285kts
12-Dec-18 12:57 33.934080 -118.521155 162 7743ft 292kts
12-Dec-18 12:58 33.876282 -118.574114 279 9822ft 286kts
12-Dec-18 12:59 33.930460 -118.618811 8 12027ft 274kts
12-Dec-18 13:00 34.001372 -118.576406 33 13563ft 314kts
12-Dec-18 13:01 34.080987 -118.513343 32 14006ft 373kts
12-Dec-18 13:02 34.169970 -118.437470 9 13998ft 395kts
12-Dec-18 13:03 34.275572 -118.449260 352 13998ft 372kts
12-Dec-18 13:04 34.374790 -118.465676 353 14020ft 349kts
12-Dec-18 13:05 34.459664 -118.431832 53 14064ft 341kts
12-Dec-18 13:06 34.493416 -118.324812 75 14049ft 343kts
12-Dec-18 13:07 34.521701 -118.221640 44 14050ft 311kts
12-Dec-18 13:08 34.582176 -118.132748 45 15311ft 357kts
12-Dec-18 13:09 34.635838 -118.028547 64 17594ft 381kts
12-Dec-18 13:10 34.651163 -117.895980 76 19568ft 404kts
12-Dec-18 13:11 34.669357 -117.760108 74 21258ft 414kts
12-Dec-18 13:12 34.696705 -117.623546 66 23071ft 420kts
12-Dec-18 13:13 34.731265 -117.486172 65 24645ft 431kts
12-Dec-18 13:20 34.196197 -118.363838 149 789ft 0kts
12-Dec-18 13:21 34.196197 -118.363838 149 789ft 0kts
12-Dec-18 13:22 34.196197 -118.363838 149 789ft 0kts
12-Dec-18 13:23 34.196197 -118.363838 149 789ft 0kts
12-Dec-18 13:24 34.196197 -118.363838 149 789ft 0kts
12-Dec-18 13:25 34.196197 -118.363838 149 789ft 0kts
12-Dec-18 13:26 34.196197 -118.363838 149 789ft 0kts
12-Dec-18 13:27 34.196197 -118.363838 149 789ft 0kts
12-Dec-18 13:29 34.196181 -118.363831 159 789ft 2kts
12-Dec-18 13:30 34.196870 -118.365163 270 789ft 17kts
12-Dec-18 13:31 34.196921 -118.368485 270 789ft 0kts
12-Dec-18 13:32 34.196921 -118.368485 270 789ft 0kts
12-Dec-18 13:33 34.196921 -118.368485 270 789ft 0kts
12-Dec-18 13:34 34.196921 -118.368485 270 789ft 0kts
12-Dec-18 13:35 34.197884 -118.368591 85 789ft 0kts
12-Dec-18 13:36 34.197526 -118.340763 91 1082ft 168kts
12-Dec-18 13:37 34.161189 -118.299778 183 3228ft 248kts
12-Dec-18 13:38 34.098256 -118.358426 225 6436ft 329kts
12-Dec-18 13:39 34.025456 -118.440997 225 9171ft 384kts
12-Dec-18 13:40 33.943530 -118.534228 225 9170ft 413kts
12-Dec-18 13:41 33.860477 -118.629195 225 9156ft 400kts
12-Dec-18 13:42 33.803243 -118.730861 282 9147ft 353kts
12-Dec-18 13:43 33.875402 -118.766850 7 9172ft 300kts
12-Dec-18 13:44 33.953706 -118.747765 11 9164ft 284kts
12-Dec-18 13:45 34.032055 -118.721514 20 9173ft 307kts
12-Dec-18 13:46 34.115877 -118.675207 25 9173ft 360kts
12-Dec-18 13:47 34.205004 -118.605343 33 9164ft 401kts
12-Dec-18 13:47 34.281606 -118.536098 37 9642ft 409kts
12-Dec-18 13:49 34.370628 -118.460976 27 13453ft 338kts
12-Dec-18 13:50 34.436802 -118.384321 61 14182ft 358kts
12-Dec-18 13:50 34.464132 -118.290056 39 15681ft 324kts
12-Dec-18 13:51 34.538303 -118.210193 38 16891ft 372kts
12-Dec-18 13:53 34.589605 -118.068582 66 19355ft 403kts
12-Dec-18 13:53 34.627637 -117.966778 49 20914ft 398kts
12-Dec-18 13:54 34.660699 -117.836347 83 22429ft 432kts
12-Dec-18 13:56 34.681817 -117.679024 65 25215ft 392kts
12-Dec-18 13:56 34.709845 -117.568839 64 25239ft 428kts
12-Dec-18 13:57 34.747398 -117.423844 65 25236ft 470kts
12-Dec-18 13:58 34.787686 -117.265590 66 25225ft 505kts
12-Dec-18 13:59 34.830273 -117.098716 66 25210ft 530kts
12-Dec-18 14:00 34.874730 -116.924367 66 25198ft 543kts
12-Dec-18 14:01 34.919251 -116.748517 66 25196ft 541kts
12-Dec-18 14:02 34.963297 -116.573421 66 25196ft 541kts
12-Dec-18 14:03 35.051838 -116.446648 24 25163ft 479kts
12-Dec-18 14:04 35.141682 -116.349671 36 24905ft 440kts
12-Dec-18 14:05 35.223205 -116.246796 37 24187ft 388kts
12-Dec-18 14:06 35.292116 -116.158589 36 24196ft 337kts
12-Dec-18 14:07 35.357553 -116.075415 36 24205ft 344kts
12-Dec-18 14:08 35.427516 -115.985925 38 21042ft 403kts
12-Dec-18 14:09 35.501946 -115.889627 38 19296ft 381kts
12-Dec-18 14:10 35.573750 -115.796836 39 17141ft 369kts
12-Dec-18 14:11 35.641738 -115.708715 39 14749ft 335kts
12-Dec-18 14:12 35.703457 -115.636064 47 10303ft 295kts
12-Dec-18 14:13 35.726852 -115.547726 82 7070ft 272kts
12-Dec-18 14:14 35.732255 -115.454398 68 6792ft 270kts
12-Dec-18 14:15 35.770694 -115.380713 58 6595ft 280kts
12-Dec-18 14:16 35.803498 -115.287104 61 6667ft 306kts
12-Dec-18 14:17 35.837576 -115.191022 61 6101ft 304kts
12-Dec-18 14:18 35.888148 -115.122709 21 4995ft 239kts
12-Dec-18 14:19 35.943498 -115.112268 352 3897ft 187kts
12-Dec-18 14:20 36.001868 -115.120304 354 3725ft 255kts
12-Dec-18 14:21 36.078514 -115.118853 1 5809ft 276kts
12-Dec-18 14:22 36.136120 -115.067737 80 7095ft 311kts
12-Dec-18 14:23 36.083574 -114.996226 177 6376ft 326kts
12-Dec-18 14:24 35.997655 -115.010008 191 5985ft 291kts
12-Dec-18 14:25 35.923938 -115.026211 191 5967ft 246kts
12-Dec-18 14:26 35.863697 -115.040560 221 5879ft 184kts
12-Dec-18 14:27 35.851562 -115.096976 271 5969ft 200kts
12-Dec-18 14:28 35.846517 -115.176608 270 5905ft 258kts
12-Dec-18 14:29 35.841398 -115.270616 270 5865ft 282kts
12-Dec-18 14:30 35.865065 -115.349877 343 5867ft 249kts
12-Dec-18 14:31 35.917817 -115.328238 33 5561ft 172kts
12-Dec-18 14:32 35.947557 -115.284247 45 4522ft 165kts
12-Dec-18 14:33 35.972201 -115.239488 47 3733ft 145kts
12-Dec-18 14:34 36.005956 -115.206079 11 3546ft 171kts
12-Dec-18 14:35 36.047687 -115.186002 18 3167ft 143kts
12-Dec-18 14:36 36.082836 -115.166264 19 2193ft 108kts
12-Dec-18 14:37 36.089674 -115.163418 255 2193ft 0kts
12-Dec-18 14:38 36.089673 -115.163420 255 2193ft 0kts
12-Dec-18 14:39 36.089036 -115.162521 115 2193ft 27kts
12-Dec-18 14:40 36.086417 -115.154507 139 2193ft 0kts
12-Dec-18 14:41 36.086067 -115.154034 130 2193ft 0kts
12-Dec-18 14:42 36.086067 -115.154034 130 2193ft 0kts
12-Dec-18 14:43 36.086067 -115.154035 130 2193ft 0kts
12-Dec-18 14:44 36.086067 -115.154035 130 2193ft 0kts

Navigation Log

Ident Type
Flight plan parsing failed, navigation log unavailable